Tennant Creek Airport
YTNK : now visible

Airfield :











YOU CAN JOIN US ON...

 
LOGIN :

Register | Disclaimer

   EN    FR    IT 

 









Legend :    VFR   Marginal VFR   IFR   Intensive IFR   Very Intensive IFR
Visi :
Ceiling :
>= 8 km
>= 3000ft
5 to 8 km
1000 to 3000 ft
1500m to 5 km
500 to 1000 ft
800 to 1500m
200 to 500 ft
< 800m
< 200 ft
Symbols :   Thunderstorms  Fog  Heavy snow  Heavy precipitations  Wind > 20 kt







- Airport Elevation : 1236 ft
- IATA code : TCA


YTNK - Tennant Creek

CURRENT METAR :
  • 231500Z AUTO 14015KT 9999 // SCT046 SCT100 27/19 Q1006

EXPIRED METARs :
  • 231431Z AUTO 13016G26KT 9999 // SCT100 BKN120 28/19 Q1006
  • 231400Z AUTO 13019KT 9999 // SCT067 28/19 Q1006
  • 231353Z AUTO 13017G27KT 9999 // SCT069 28/19 Q1006
  • 231314Z AUTO 12020G30KT 9999 // NCD 28/19 Q1007
  • 231300Z AUTO 11023KT 9999 // SCT045 SCT115 28/18 Q1007

TAF TAF YTNK
Valid from the 23 at 08:00 until the 23 at 20:00 UTC


230703Z 2308/2320 10018G28KT CAVOK
FM231200 12020G35KT CAVOK
FM231800 13020G45KT CAVOK
YBBB FIR / Oceania



MET'MAP, your aeronautical weather chart ! - Copyright ORBIFLY December 2007 - Disclaimer

ORBIFLY MET'MAP TEAM :

Programming & Development : Alexandra Zaïnal
Concept & Development : Baudouin d'Aumeries
Co-Development & Prog : Marc-Olivier Méhu
Technical & hardware support : Manuel Goepfert

Contact : metmap@orbifly.com




SOURCES & CREDITS :

   NOAA       Earth
Advisory